Hier das METAR für die 16 wichtigsten Deutschen Flughäfen.
(dauert ein wenig.... ich muss laden.....)

ODER
METAR nach ICAO Code suchen

Berlin - Schönefeld

EDDB

METAR
EDDB 022120Z 23010KT CAVOK 04/M01 Q1006 NOSIG
EDDBMETAR lang
Berlin-Schoenefeld, Germany (EDDB) 52-23N 013-31E 50M
Apr 02, 2020 - 05:20 PM EDT / 2020.04.02 2120 UTC
Wind: from the SW (230 degrees) at 12 MPH (10 KT):0
Visibility: greater than 7 mile(s):0
Temperature: 39 F (4 C)
Dew Point: 30 F (-1 C)
Relative Humidity: 69%
Pressure (altimeter): 29.71 in. Hg (1006 hPa)
ob: EDDB 022120Z 23010KT CAVOK 04/M01 Q1006 NOSIG
cycle: 21

Dresden

EDDC

METAR
EDDC 022120Z 30005KT CAVOK 04/M02 Q1008
EDDCMETAR lang
Dresden-Klotzsche, Germany (EDDC) 51-08N 013-45E 232M
Apr 02, 2020 - 05:20 PM EDT / 2020.04.02 2120 UTC
Wind: from the WNW (300 degrees) at 6 MPH (5 KT):0
Visibility: greater than 7 mile(s):0
Temperature: 39 F (4 C)
Dew Point: 28 F (-2 C)
Relative Humidity: 64%
Pressure (altimeter): 29.77 in. Hg (1008 hPa)
ob: EDDC 022120Z 30005KT CAVOK 04/M02 Q1008
cycle: 21

Erfurt

EDDE

METAR
EDDE 022120Z 24007KT CAVOK 03/M02 Q1010
EDDEMETAR lang
Erfurt-Bindersleben, Germany (EDDE) 50-59N 010-58E 322M
Apr 02, 2020 - 05:20 PM EDT / 2020.04.02 2120 UTC
Wind: from the WSW (240 degrees) at 8 MPH (7 KT):0
Visibility: greater than 7 mile(s):0
Temperature: 37 F (3 C)
Dew Point: 28 F (-2 C)
Relative Humidity: 69%
Pressure (altimeter): 29.83 in. Hg (1010 hPa)
ob: EDDE 022120Z 24007KT CAVOK 03/M02 Q1010
cycle: 21

Frankfurt a. Main

EDDF

METAR
EDDF 022120Z 32005KT 280V360 CAVOK 08/M01 Q1012 NOSIG
EDDFMETAR lang
Frankfurt / M-Flughafen, Germany (EDDF) 50-03N 008-36E 113M
Apr 02, 2020 - 05:20 PM EDT / 2020.04.02 2120 UTC
Wind: from the NW (320 degrees) at 6 MPH (5 KT) (direction variable):0
Visibility: greater than 7 mile(s):0
Temperature: 46 F (8 C)
Dew Point: 30 F (-1 C)
Relative Humidity: 52%
Pressure (altimeter): 29.88 in. Hg (1012 hPa)
ob: EDDF 022120Z 32005KT 280V360 CAVOK 08/M01 Q1012 NOSIG
cycle: 21

Münster Osnabrück

EDDG

METAR
EDDG 022120Z 24012KT 9999 BKN033 08/02 Q1009 NOSIG
EDDGMETAR lang
Muenster / Osnabrueck, Germany (EDDG) 52-08N 007-42E 53M
Apr 02, 2020 - 05:20 PM EDT / 2020.04.02 2120 UTC
Wind: from the WSW (240 degrees) at 14 MPH (12 KT):0
Visibility: greater than 7 mile(s):0
Sky conditions: mostly cloudy
Temperature: 46 F (8 C)
Dew Point: 35 F (2 C)
Relative Humidity: 65%
Pressure (altimeter): 29.80 in. Hg (1009 hPa)
ob: EDDG 022120Z 24012KT 9999 BKN033 08/02 Q1009 NOSIG
cycle: 21

Hamburg

EDDH

METAR
EDDH 022120Z 27009KT 9999 FEW010 BKN032 06/04 Q1005 NOSIG
EDDHMETAR lang
Hamburg-Fuhlsbuettel, Germany (EDDH) 53-38N 010-00E 15M
Apr 02, 2020 - 05:20 PM EDT / 2020.04.02 2120 UTC
Wind: from the W (270 degrees) at 10 MPH (9 KT):0
Visibility: greater than 7 mile(s):0
Sky conditions: mostly cloudy
Temperature: 42 F (6 C)
Dew Point: 39 F (4 C)
Relative Humidity: 86%
Pressure (altimeter): 29.68 in. Hg (1005 hPa)
ob: EDDH 022120Z 27009KT 9999 FEW010 BKN032 06/04 Q1005 NOSIG
cycle: 21

Köln - Bonn

EDDK

METAR
EDDK 022120Z 25006KT CAVOK 06/00 Q1012 NOSIG
EDDKMETAR lang
Koeln / Bonn, Germany (EDDK) 50-52N 007-10E 100M
Apr 02, 2020 - 05:20 PM EDT / 2020.04.02 2120 UTC
Wind: from the WSW (250 degrees) at 7 MPH (6 KT):0
Visibility: greater than 7 mile(s):0
Temperature: 42 F (6 C)
Dew Point: 32 F (0 C)
Relative Humidity: 65%
Pressure (altimeter): 29.88 in. Hg (1012 hPa)
ob: EDDK 022120Z 25006KT CAVOK 06/00 Q1012 NOSIG
cycle: 21

Düsseldorf

EDDL

METAR
EDDL 022120Z 23008KT 9999 SCT043 08/02 Q1012 NOSIG
EDDLMETAR lang
Duesseldorf, Germany (EDDL) 51-18N 006-46E 41M
Apr 02, 2020 - 05:20 PM EDT / 2020.04.02 2120 UTC
Wind: from the SW (230 degrees) at 9 MPH (8 KT):0
Visibility: greater than 7 mile(s):0
Sky conditions: partly cloudy
Temperature: 46 F (8 C)
Dew Point: 35 F (2 C)
Relative Humidity: 65%
Pressure (altimeter): 29.88 in. Hg (1012 hPa)
ob: EDDL 022120Z 23008KT 9999 SCT043 08/02 Q1012 NOSIG
cycle: 21

München

EDDM

METAR
EDDM 022120Z 27003KT 220V310 CAVOK M01/M05 Q1010 NOSIG
EDDMMETAR lang
Munchen, Germany (EDDM) 48-21N 011-47E
Apr 02, 2020 - 05:20 PM EDT / 2020.04.02 2120 UTC
Wind: from the W (270 degrees) at 3 MPH (3 KT) (direction variable):0
Visibility: greater than 7 mile(s):0
Temperature: 30 F (-1 C)
Dew Point: 23 F (-5 C)
Relative Humidity: 74%
Pressure (altimeter): 29.83 in. Hg (1010 hPa)
ob: EDDM 022120Z 27003KT 220V310 CAVOK M01/M05 Q1010 NOSIG
cycle: 21

Nürnberg

EDDN

METAR
EDDN 022120Z VRB02KT CAVOK 05/M05 Q1010 NOSIG
EDDNMETAR lang
Nuernberg, Germany (EDDN) 49-30N 011-03E 318M
Apr 02, 2020 - 05:20 PM EDT / 2020.04.02 2120 UTC
Wind: Variable at 2 MPH (2 KT):0
Visibility: greater than 7 mile(s):0
Temperature: 41 F (5 C)
Dew Point: 23 F (-5 C)
Relative Humidity: 48%
Pressure (altimeter): 29.83 in. Hg (1010 hPa)
ob: EDDN 022120Z VRB02KT CAVOK 05/M05 Q1010 NOSIG
cycle: 21

Leipzig - Halle

EDDP

METAR
EDDP 022120Z 25009KT CAVOK 01/M02 Q1008 NOSIG
EDDPMETAR lang
Leipzig-Schkeuditz, Germany (EDDP) 51-25N 012-14E 149M
Apr 02, 2020 - 05:20 PM EDT / 2020.04.02 2120 UTC
Wind: from the WSW (250 degrees) at 10 MPH (9 KT):0
Visibility: greater than 7 mile(s):0
Temperature: 33 F (1 C)
Windchill: 24 F (-4 C):1
Dew Point: 28 F (-2 C)
Relative Humidity: 80%
Pressure (altimeter): 29.77 in. Hg (1008 hPa)
ob: EDDP 022120Z 25009KT CAVOK 01/M02 Q1008 NOSIG
cycle: 21

Saarbrücken

EDDR

METAR
EDDR 022120Z 29006KT CAVOK 04/M02 Q1013
EDDRMETAR lang
Saarbruecken / Ensheim, Germany (EDDR) 49-13N 007-07E 320M
Apr 02, 2020 - 05:20 PM EDT / 2020.04.02 2120 UTC
Wind: from the WNW (290 degrees) at 7 MPH (6 KT):0
Visibility: greater than 7 mile(s):0
Temperature: 39 F (4 C)
Dew Point: 28 F (-2 C)
Relative Humidity: 64%
Pressure (altimeter): 29.91 in. Hg (1013 hPa)
ob: EDDR 022120Z 29006KT CAVOK 04/M02 Q1013
cycle: 21

Stuttgart

EDDS

METAR
EDDS 022120Z 26004KT CAVOK 04/M04 Q1011
EDDSMETAR lang
Stuttgart-Echterdingen, Germany (EDDS) 48-41N 009-13E 391M
Apr 02, 2020 - 05:20 PM EDT / 2020.04.02 2120 UTC
Wind: from the W (260 degrees) at 5 MPH (4 KT):0
Visibility: greater than 7 mile(s):0
Temperature: 39 F (4 C)
Dew Point: 24 F (-4 C)
Relative Humidity: 55%
Pressure (altimeter): 29.85 in. Hg (1011 hPa)
ob: EDDS 022120Z 26004KT CAVOK 04/M04 Q1011
cycle: 21

Berlin - Tegel

EDDT

METAR
EDDT 022120Z 24015KT CAVOK 07/M01 Q1005
EDDTMETAR lang
Berlin-Tegel, Germany (EDDT) 52-34N 013-19E 37M
Apr 02, 2020 - 05:20 PM EDT / 2020.04.02 2120 UTC
Wind: from the WSW (240 degrees) at 17 MPH (15 KT):0
Visibility: greater than 7 mile(s):0
Temperature: 44 F (7 C)
Dew Point: 30 F (-1 C)
Relative Humidity: 56%
Pressure (altimeter): 29.68 in. Hg (1005 hPa)
ob: EDDT 022120Z 24015KT CAVOK 07/M01 Q1005
cycle: 21

Hannover

EDDV

METAR
EDDV 022120Z 26015KT 9999 -SHRA BKN029 07/03 Q1008
EDDVMETAR lang
Hannover, Germany (EDDV) 52-28N 009-41E 59M
Apr 02, 2020 - 05:20 PM EDT / 2020.04.02 2120 UTC
Wind: from the W (260 degrees) at 17 MPH (15 KT):0
Visibility: greater than 7 mile(s):0
Sky conditions: mostly cloudy
Weather: light rain showers
Temperature: 44 F (7 C)
Dew Point: 37 F (3 C)
Relative Humidity: 75%
Pressure (altimeter): 29.77 in. Hg (1008 hPa)
ob: EDDV 022120Z 26015KT 9999 -SHRA BKN029 07/03 Q1008
cycle: 21

Bremen

EDDW

METAR
EDDW 022120Z 26015KT 9999 SCT019 07/05 Q1007
EDDWMETAR lang
Bremen, Germany (EDDW) 53-03N 008-48E 5M
Apr 02, 2020 - 05:20 PM EDT / 2020.04.02 2120 UTC
Wind: from the W (260 degrees) at 17 MPH (15 KT):0
Visibility: greater than 7 mile(s):0
Sky conditions: partly cloudy
Temperature: 44 F (7 C)
Dew Point: 41 F (5 C)
Relative Humidity: 87%
Pressure (altimeter): 29.74 in. Hg (1007 hPa)
ob: EDDW 022120Z 26015KT 9999 SCT019 07/05 Q1007
cycle: 21